createdAt,value
2022-11-28T00:01:25.959Z,10.07
2022-11-28T00:03:53.616Z,10.84
2022-11-28T00:06:21.354Z,11.15
2022-11-28T00:08:49.256Z,10.56
2022-11-28T00:11:17.034Z,9.76
2022-11-28T00:13:45.200Z,9.11
2022-11-28T00:16:14.102Z,8.55
2022-11-28T00:18:42.015Z,8.10
2022-11-28T00:21:10.955Z,7.77
2022-11-28T00:23:38.807Z,7.80
2022-11-28T00:26:10.546Z,8.84
2022-11-28T00:28:38.174Z,9.93
2022-11-28T00:31:06.263Z,10.67
2022-11-28T00:33:33.926Z,10.82
2022-11-28T00:36:02.458Z,10.00
2022-11-28T00:38:30.363Z,9.23
2022-11-28T00:41:01.729Z,8.66
2022-11-28T00:43:29.472Z,8.19
2022-11-28T00:45:57.200Z,7.81
2022-11-28T00:48:25.163Z,7.64
2022-11-28T00:50:53.145Z,8.59
2022-11-28T00:53:21.122Z,9.72
2022-11-28T00:55:48.739Z,10.50
2022-11-28T00:58:16.328Z,11.01
2022-11-28T01:00:44.192Z,10.38
2022-11-28T01:03:11.951Z,9.45
2022-11-28T01:05:40.403Z,8.72
2022-11-28T01:08:08.039Z,8.11
2022-11-28T01:10:39.318Z,7.69
2022-11-28T01:13:06.999Z,7.38
2022-11-28T01:15:34.862Z,7.58
2022-11-28T01:18:02.771Z,8.82
2022-11-28T01:20:30.387Z,9.87
2022-11-28T01:22:57.997Z,10.55
2022-11-28T01:25:25.722Z,10.32
2022-11-28T01:27:53.324Z,9.54
2022-11-28T01:30:20.948Z,8.89
2022-11-28T01:32:48.701Z,8.35
2022-11-28T01:35:16.571Z,7.90
2022-11-28T01:37:44.256Z,7.56
2022-11-28T01:40:12.341Z,7.81
2022-11-28T01:42:40.056Z,8.98
2022-11-28T01:45:12.425Z,9.91
2022-11-28T01:47:40.100Z,10.33
2022-11-28T01:50:08.196Z,9.78
2022-11-28T01:52:36.746Z,8.97
2022-11-28T01:55:04.866Z,8.32
2022-11-28T01:57:32.604Z,7.86
2022-11-28T02:00:09.099Z,7.49
2022-11-28T02:02:44.934Z,7.24
2022-11-28T02:05:12.784Z,8.11
2022-11-28T02:07:40.765Z,9.36
2022-11-28T02:10:09.618Z,10.01
2022-11-28T02:12:49.651Z,10.29
2022-11-28T02:15:35.485Z,9.49
2022-11-28T02:18:10.241Z,8.49
2022-11-28T02:20:47.174Z,7.84
2022-11-28T02:23:21.011Z,7.31
2022-11-28T02:26:08.833Z,6.92
2022-11-28T02:28:36.573Z,7.29
2022-11-28T02:31:13.316Z,8.61
2022-11-28T02:33:51.630Z,9.66
2022-11-28T02:36:20.345Z,10.27
2022-11-28T02:39:11.260Z,9.70
2022-11-28T02:41:41.851Z,8.63
2022-11-28T02:44:14.464Z,7.88
2022-11-28T02:46:51.108Z,7.29
2022-11-28T02:49:36.297Z,6.87
2022-11-28T02:52:06.647Z,6.52
2022-11-28T02:54:34.235Z,6.28
2022-11-28T02:57:03.053Z,6.12
2022-11-28T02:59:46.129Z,6.87
2022-11-28T03:02:15.619Z,8.55
2022-11-28T03:04:52.389Z,9.69
2022-11-28T03:07:39.122Z,10.36
2022-11-28T03:10:14.296Z,9.73
2022-11-28T03:12:45.271Z,8.78
2022-11-28T03:15:13.290Z,8.06
2022-11-28T03:17:40.950Z,7.46
2022-11-28T03:20:26.813Z,6.95
2022-11-28T03:23:13.318Z,6.56
2022-11-28T03:25:40.939Z,7.11
2022-11-28T03:28:08.523Z,8.53
2022-11-28T03:30:40.482Z,9.63
2022-11-28T03:33:08.088Z,9.72
2022-11-28T03:35:36.880Z,8.71
2022-11-28T03:38:06.129Z,7.79
2022-11-28T03:40:36.606Z,7.19
2022-11-28T03:43:05.296Z,6.66
2022-11-28T03:45:35.006Z,6.24
2022-11-28T03:48:03.675Z,6.43
2022-11-28T03:50:36.377Z,7.65
2022-11-28T03:53:05.396Z,8.93
2022-11-28T03:55:38.323Z,9.78
2022-11-28T03:58:11.964Z,9.53
2022-11-28T04:00:42.852Z,8.55
2022-11-28T04:03:10.525Z,7.73
2022-11-28T04:05:40.954Z,7.14
2022-11-28T04:08:18.452Z,6.70
2022-11-28T04:10:52.523Z,6.31
2022-11-28T04:13:27.105Z,6.28
2022-11-28T04:16:04.641Z,7.53
2022-11-28T04:18:32.469Z,8.86
2022-11-28T04:21:03.124Z,9.50
2022-11-28T04:23:30.853Z,8.82
2022-11-28T04:26:00.634Z,7.86
2022-11-28T04:28:28.911Z,7.10
2022-11-28T04:30:57.966Z,6.59
2022-11-28T04:33:25.758Z,6.22
2022-11-28T04:35:53.673Z,6.35
2022-11-28T04:38:21.881Z,7.72
2022-11-28T04:40:52.136Z,8.90
2022-11-28T04:43:24.668Z,9.62
2022-11-28T04:46:12.560Z,9.30
2022-11-28T04:48:40.615Z,8.21
2022-11-28T04:51:21.320Z,7.45
2022-11-28T04:54:10.811Z,6.87
2022-11-28T04:56:41.390Z,6.46
2022-11-28T04:59:09.186Z,6.20
2022-11-28T05:01:36.853Z,5.96
2022-11-28T05:04:04.656Z,5.82
2022-11-28T05:06:34.289Z,6.87
2022-11-28T05:09:02.289Z,8.17
2022-11-28T05:11:30.554Z,9.09
2022-11-28T05:14:01.939Z,9.77
2022-11-28T05:16:30.016Z,9.35
2022-11-28T05:18:57.746Z,8.44
2022-11-28T05:21:25.817Z,7.69
2022-11-28T05:23:53.507Z,7.10
2022-11-28T05:26:21.512Z,6.67
2022-11-28T05:28:50.973Z,6.37
2022-11-28T05:31:19.769Z,7.06
2022-11-28T05:33:47.558Z,8.13
2022-11-28T05:36:15.555Z,8.75
2022-11-28T05:38:43.632Z,9.45
2022-11-28T05:41:18.480Z,9.63
2022-11-28T05:43:46.165Z,8.85
2022-11-28T05:46:13.854Z,8.04
2022-11-28T05:49:15.166Z,7.27
2022-11-28T05:51:43.102Z,7.03
2022-11-28T05:54:10.832Z,7.88
2022-11-28T05:56:42.350Z,8.79
2022-11-28T05:59:10.385Z,9.45
2022-11-28T06:01:38.200Z,9.56
2022-11-28T06:04:06.216Z,8.72
2022-11-28T06:06:35.240Z,7.87
2022-11-28T06:09:04.557Z,7.18
2022-11-28T06:11:33.860Z,6.91
2022-11-28T06:14:03.066Z,7.99
2022-11-28T06:16:31.774Z,9.07
2022-11-28T06:19:04.489Z,9.41
2022-11-28T06:21:33.207Z,8.70
2022-11-28T06:24:00.971Z,7.79
2022-11-28T06:26:29.006Z,7.11
2022-11-28T06:28:56.728Z,6.91
2022-11-28T06:31:28.220Z,8.08
2022-11-28T06:33:57.009Z,9.27
2022-11-28T06:36:26.324Z,9.87
2022-11-28T06:38:54.356Z,9.25
2022-11-28T06:41:23.074Z,8.34
2022-11-28T06:43:51.078Z,7.65
2022-11-28T06:46:20.074Z,7.14
2022-11-28T06:48:49.801Z,7.07
2022-11-28T06:51:19.141Z,8.27
2022-11-28T06:53:47.114Z,9.70
2022-11-28T06:56:17.285Z,10.33
2022-11-28T06:58:46.258Z,9.49
2022-11-28T07:01:19.522Z,8.47
2022-11-28T07:03:48.442Z,7.67
2022-11-28T07:06:18.001Z,7.13
2022-11-28T07:08:46.703Z,7.00
2022-11-28T07:11:20.392Z,8.15
2022-11-28T07:13:49.545Z,9.57
2022-11-28T07:16:23.280Z,10.16
2022-11-28T07:18:51.808Z,9.45
2022-11-28T07:21:20.398Z,8.50
2022-11-28T07:23:48.413Z,7.76
2022-11-28T07:26:18.801Z,7.21
2022-11-28T07:28:46.776Z,6.92
2022-11-28T07:31:17.709Z,7.85
2022-11-28T07:33:47.473Z,9.16
2022-11-28T07:36:18.018Z,9.94
2022-11-28T07:38:50.030Z,9.44
2022-11-28T07:41:21.318Z,8.58
2022-11-28T07:43:54.650Z,7.89
2022-11-28T07:46:23.175Z,7.41
2022-11-28T07:48:50.935Z,7.37
2022-11-28T07:51:30.250Z,8.75
2022-11-28T07:53:58.731Z,10.12
2022-11-28T07:56:39.589Z,9.88
2022-11-28T07:59:17.725Z,8.85
2022-11-28T08:01:45.880Z,8.12
2022-11-28T08:04:13.811Z,7.56
2022-11-28T08:06:43.398Z,7.14
2022-11-28T08:09:14.087Z,7.12
2022-11-28T08:11:41.930Z,8.43
2022-11-28T08:14:09.666Z,9.88
2022-11-28T08:16:41.220Z,10.53
2022-11-28T08:19:09.022Z,9.76
2022-11-28T08:21:37.267Z,8.89
2022-11-28T08:24:05.571Z,8.20
2022-11-28T08:26:33.475Z,7.69
2022-11-28T08:29:02.767Z,7.25
2022-11-28T08:31:32.993Z,7.41
2022-11-28T08:34:02.208Z,8.94
2022-11-28T08:36:30.124Z,10.22
2022-11-28T08:39:17.100Z,10.46
2022-11-28T08:41:48.235Z,9.41
2022-11-28T08:44:16.188Z,8.51
2022-11-28T08:46:43.960Z,7.90
2022-11-28T08:49:11.735Z,7.44
2022-11-28T08:51:39.428Z,7.35
2022-11-28T08:54:07.134Z,8.58
2022-11-28T08:56:35.093Z,9.75
2022-11-28T08:59:03.159Z,9.71
2022-11-28T09:01:30.950Z,8.89
2022-11-28T09:03:58.974Z,8.14
2022-11-28T09:06:26.725Z,7.62
2022-11-28T09:08:54.498Z,7.27
2022-11-28T09:11:22.985Z,7.38
2022-11-28T09:13:51.097Z,8.92
2022-11-28T09:16:19.122Z,10.46
2022-11-28T09:18:46.973Z,11.05
2022-11-28T09:21:15.662Z,10.32
2022-11-28T09:23:44.595Z,9.46
2022-11-28T09:26:15.197Z,8.83
2022-11-28T09:28:43.159Z,8.32
2022-11-28T09:31:12.572Z,7.94
2022-11-28T09:33:40.734Z,7.94
2022-11-28T09:36:11.593Z,9.42
2022-11-28T09:38:39.677Z,10.47
2022-11-28T09:41:37.482Z,9.94
2022-11-28T09:44:14.820Z,9.02
2022-11-28T09:46:43.279Z,8.38
2022-11-28T09:49:38.329Z,8.03
2022-11-28T09:52:14.157Z,8.41
2022-11-28T09:54:48.626Z,10.32
2022-11-28T09:57:26.202Z,11.57
2022-11-28T09:59:53.932Z,11.14
2022-11-28T10:02:33.672Z,10.52
2022-11-28T10:05:05.133Z,9.92
2022-11-28T10:07:59.690Z,9.48
2022-11-28T10:10:43.332Z,9.13
2022-11-28T10:13:16.802Z,8.88
2022-11-28T10:15:48.414Z,8.67
2022-11-28T10:18:45.587Z,8.58
2022-11-28T10:21:16.195Z,8.52
2022-11-28T10:23:45.613Z,8.48
2022-11-28T10:26:35.947Z,8.83
2022-11-28T10:29:32.028Z,10.75
2022-11-28T10:32:01.993Z,11.29
2022-11-28T10:34:48.835Z,10.72
2022-11-28T10:37:24.946Z,10.21
2022-11-28T10:39:53.232Z,9.92
2022-11-28T10:42:31.260Z,9.72
2022-11-28T10:45:14.930Z,9.54
2022-11-28T10:47:52.062Z,9.32
2022-11-28T10:50:41.548Z,9.14
2022-11-28T10:53:19.108Z,8.96
2022-11-28T10:55:57.622Z,8.75
2022-11-28T10:58:44.917Z,8.57
2022-11-28T11:01:13.074Z,8.85
2022-11-28T11:03:41.536Z,10.45
2022-11-28T11:06:09.645Z,11.67
2022-11-28T11:08:39.077Z,11.34
2022-11-28T11:11:27.837Z,10.62
2022-11-28T11:14:04.739Z,9.91
2022-11-28T11:16:50.654Z,9.48
2022-11-28T11:19:34.053Z,9.15
2022-11-28T11:22:19.242Z,8.85
2022-11-28T11:25:05.804Z,8.59
2022-11-28T11:27:35.326Z,8.40
2022-11-28T11:30:34.737Z,8.24
2022-11-28T11:33:05.013Z,8.67
2022-11-28T11:35:44.832Z,10.34
2022-11-28T11:38:32.262Z,11.33
2022-11-28T11:41:25.036Z,10.76
2022-11-28T11:43:53.113Z,10.06
2022-11-28T11:46:21.870Z,9.67
2022-11-28T11:48:54.098Z,9.39
2022-11-28T11:51:35.080Z,9.20
2022-11-28T11:54:15.914Z,9.03
2022-11-28T11:56:46.509Z,8.97
2022-11-28T11:59:18.576Z,8.98
2022-11-28T12:01:49.102Z,8.97
2022-11-28T12:04:55.756Z,8.95
2022-11-28T12:07:23.446Z,8.93
2022-11-28T12:09:54.493Z,8.92
2022-11-28T12:12:24.819Z,8.92
2022-11-28T12:14:52.799Z,8.91
2022-11-28T12:17:59.482Z,8.89
2022-11-28T12:20:47.167Z,8.88
2022-11-28T12:23:17.624Z,8.85
2022-11-28T12:25:50.018Z,8.85
2022-11-28T12:28:22.684Z,8.80
2022-11-28T12:30:56.194Z,8.75
2022-11-28T12:33:39.239Z,8.72
2022-11-28T12:36:19.247Z,8.96
2022-11-28T12:39:12.621Z,10.58
2022-11-28T12:41:59.064Z,11.79
2022-11-28T12:44:36.040Z,11.31
2022-11-28T12:47:25.437Z,10.71
2022-11-28T12:50:00.423Z,10.27
2022-11-28T12:52:43.701Z,10.00
2022-11-28T12:55:25.865Z,9.77
2022-11-28T12:58:13.434Z,9.56
2022-11-28T13:00:54.071Z,9.38
2022-11-28T13:03:37.600Z,9.24
2022-11-28T13:06:05.287Z,9.10
2022-11-28T13:08:43.299Z,8.98
2022-11-28T13:11:40.181Z,8.88
2022-11-28T13:14:26.648Z,8.80
2022-11-28T13:16:57.619Z,8.74
2022-11-28T13:19:31.106Z,8.71
2022-11-28T13:22:12.155Z,8.71
2022-11-28T13:25:08.405Z,8.73
2022-11-28T13:27:58.006Z,8.72
2022-11-28T13:30:27.030Z,8.66
2022-11-28T13:33:02.121Z,8.61
2022-11-28T13:35:30.216Z,8.58
2022-11-28T13:38:50.649Z,8.54
2022-11-28T13:41:52.669Z,8.43
2022-11-28T13:44:28.829Z,8.31
2022-11-28T13:46:56.993Z,8.21
2022-11-28T13:49:27.317Z,8.44
2022-11-28T13:52:29.355Z,9.92
2022-11-28T13:54:57.103Z,11.13
2022-11-28T13:57:29.098Z,10.71
2022-11-28T14:00:01.675Z,10.23
2022-11-28T14:02:41.872Z,9.92
2022-11-28T14:05:38.773Z,9.57
2022-11-28T14:08:07.430Z,9.25
2022-11-28T14:11:01.907Z,9.14
2022-11-28T14:13:30.427Z,9.11
2022-11-28T14:16:19.885Z,8.99
2022-11-28T14:19:15.528Z,8.78
2022-11-28T14:21:50.138Z,8.55
2022-11-28T14:24:51.720Z,8.34
2022-11-28T14:27:23.704Z,8.09
2022-11-28T14:29:53.446Z,7.90
2022-11-28T14:32:30.602Z,8.06
2022-11-28T14:35:00.813Z,9.49
2022-11-28T14:37:29.257Z,10.86
2022-11-28T14:39:57.977Z,11.51
2022-11-28T14:42:58.851Z,10.83
2022-11-28T14:45:39.550Z,9.99
2022-11-28T14:48:19.313Z,9.34
2022-11-28T14:50:55.931Z,8.89
2022-11-28T14:53:46.087Z,8.52
2022-11-28T14:56:13.772Z,8.23
2022-11-28T14:58:48.745Z,8.03
2022-11-28T15:01:25.009Z,7.85
2022-11-28T15:04:00.613Z,7.69
2022-11-28T15:06:35.450Z,7.79
2022-11-28T15:09:19.901Z,9.27
2022-11-28T15:12:08.601Z,10.76
2022-11-28T15:14:38.346Z,11.19
2022-11-28T15:17:12.485Z,10.46
2022-11-28T15:19:48.892Z,9.75
2022-11-28T15:22:32.166Z,9.21
2022-11-28T15:25:00.203Z,8.77
2022-11-28T15:27:29.219Z,8.46
2022-11-28T15:30:00.030Z,8.23
2022-11-28T15:32:30.129Z,8.06
2022-11-28T15:35:01.131Z,7.91
2022-11-28T15:37:31.542Z,7.76
2022-11-28T15:40:01.296Z,7.66
2022-11-28T15:42:32.717Z,7.56
2022-11-28T15:45:05.988Z,7.87
2022-11-28T15:47:34.343Z,9.67
2022-11-28T15:50:17.171Z,11.21
2022-11-28T15:53:02.564Z,11.71
2022-11-28T15:55:33.562Z,10.82
2022-11-28T15:58:10.787Z,10.04
2022-11-28T16:00:44.592Z,9.46
2022-11-28T16:03:18.348Z,9.05
2022-11-28T16:05:48.035Z,8.74
2022-11-28T16:08:26.173Z,8.45
2022-11-28T16:10:54.697Z,8.21
2022-11-28T16:13:24.845Z,8.01
2022-11-28T16:15:54.200Z,7.78
2022-11-28T16:18:22.825Z,7.58
2022-11-28T16:20:50.723Z,7.46
2022-11-28T16:23:37.951Z,8.39
2022-11-28T16:26:17.853Z,10.36
2022-11-28T16:28:58.619Z,11.22
2022-11-28T16:31:27.625Z,10.46
2022-11-28T16:33:55.633Z,9.70
2022-11-28T16:36:36.337Z,9.14
2022-11-28T16:39:10.374Z,8.69
2022-11-28T16:41:50.286Z,8.34
2022-11-28T16:44:23.636Z,8.02
2022-11-28T16:46:55.026Z,7.78
2022-11-28T16:49:34.887Z,7.62
2022-11-28T16:52:21.041Z,7.48
2022-11-28T16:54:53.776Z,7.38
2022-11-28T16:57:21.996Z,7.32
2022-11-28T16:59:52.818Z,7.53
2022-11-28T17:02:22.860Z,9.16
2022-11-28T17:04:52.796Z,10.88
2022-11-28T17:07:23.602Z,11.60
2022-11-28T17:09:51.552Z,10.89
2022-11-28T17:12:29.450Z,10.07
2022-11-28T17:14:58.344Z,9.43
2022-11-28T17:17:27.112Z,8.99
2022-11-28T17:19:54.816Z,8.64
2022-11-28T17:22:29.005Z,8.35
2022-11-28T17:25:00.392Z,8.09
2022-11-28T17:27:28.272Z,7.88
2022-11-28T17:29:56.070Z,7.71
2022-11-28T17:32:23.803Z,7.56
2022-11-28T17:34:51.559Z,7.46
2022-11-28T17:37:19.346Z,7.62
2022-11-28T17:40:05.723Z,9.11
2022-11-28T17:42:33.533Z,10.73
2022-11-28T17:45:01.359Z,10.90
2022-11-28T17:47:29.164Z,10.18
2022-11-28T17:49:57.158Z,9.54
2022-11-28T17:52:30.092Z,9.06
2022-11-28T17:55:07.048Z,8.68
2022-11-28T17:57:36.124Z,8.35
2022-11-28T18:00:10.053Z,8.11
2022-11-28T18:02:44.853Z,7.88
2022-11-28T18:05:12.923Z,7.68
2022-11-28T18:07:41.144Z,7.50
2022-11-28T18:10:12.434Z,7.63
2022-11-28T18:12:40.399Z,9.01
2022-11-28T18:15:10.615Z,10.49
2022-11-28T18:17:38.530Z,11.22
2022-11-28T18:20:07.340Z,10.58
2022-11-28T18:22:35.126Z,9.79
2022-11-28T18:25:03.224Z,9.23
2022-11-28T18:27:31.123Z,8.85
2022-11-28T18:29:59.209Z,8.58
2022-11-28T18:32:27.121Z,8.37
2022-11-28T18:34:55.381Z,8.17
2022-11-28T18:37:23.526Z,8.01
2022-11-28T18:39:52.657Z,7.82
2022-11-28T18:42:20.691Z,7.60
2022-11-28T18:44:48.753Z,7.42
2022-11-28T18:47:16.598Z,7.51
2022-11-28T18:49:44.717Z,8.82
2022-11-28T18:52:14.072Z,10.10
2022-11-28T18:54:41.900Z,10.80
2022-11-28T18:57:10.026Z,10.26
2022-11-28T18:59:39.028Z,9.48
2022-11-28T19:02:07.291Z,8.87
2022-11-28T19:04:35.555Z,8.40
2022-11-28T19:07:04.108Z,8.06
2022-11-28T19:09:32.578Z,7.80
2022-11-28T19:12:00.349Z,7.57
2022-11-28T19:14:28.901Z,7.37
2022-11-28T19:16:57.662Z,7.42
2022-11-28T19:19:25.558Z,8.48
2022-11-28T19:21:53.805Z,9.92
2022-11-28T19:24:22.756Z,10.48
2022-11-28T19:26:50.983Z,9.89
2022-11-28T19:29:18.861Z,9.19
2022-11-28T19:31:46.844Z,8.66
2022-11-28T19:34:17.834Z,8.26
2022-11-28T19:36:50.041Z,7.91
2022-11-28T19:39:23.458Z,7.63
2022-11-28T19:41:52.927Z,7.41
2022-11-28T19:44:21.910Z,7.20
2022-11-28T19:46:50.470Z,7.27
2022-11-28T19:49:21.419Z,8.44
2022-11-28T19:51:50.500Z,9.88
2022-11-28T19:54:20.433Z,10.70
2022-11-28T19:56:49.525Z,10.10
2022-11-28T19:59:17.624Z,9.26
2022-11-28T20:01:48.307Z,8.65
2022-11-28T20:04:16.535Z,8.18
2022-11-28T20:06:44.268Z,7.82
2022-11-28T20:09:13.446Z,7.59
2022-11-28T20:11:43.241Z,7.39
2022-11-28T20:14:14.283Z,7.17
2022-11-28T20:16:42.190Z,6.97
2022-11-28T20:19:11.820Z,6.81
2022-11-28T20:21:40.340Z,6.67
2022-11-28T20:24:10.478Z,6.79
2022-11-28T20:26:41.940Z,8.27
2022-11-28T20:29:13.526Z,9.84
2022-11-28T20:31:46.037Z,9.96
2022-11-28T20:34:17.342Z,9.10
2022-11-28T20:36:45.887Z,8.42
2022-11-28T20:39:14.040Z,7.95
2022-11-28T20:41:41.812Z,7.56
2022-11-28T20:44:10.249Z,7.26
2022-11-28T20:46:39.847Z,7.05
2022-11-28T20:49:07.796Z,6.89
2022-11-28T20:51:36.070Z,6.76
2022-11-28T20:54:05.841Z,6.65
2022-11-28T20:56:57.885Z,6.55
2022-11-28T20:59:24.898Z,6.43
2022-11-28T21:01:52.700Z,6.67
2022-11-28T21:04:20.493Z,8.00
2022-11-28T21:06:49.400Z,9.34
2022-11-28T21:09:20.200Z,10.33
2022-11-28T21:11:58.707Z,9.85
2022-11-28T21:14:28.637Z,9.04
2022-11-28T21:16:58.235Z,8.48
2022-11-28T21:19:26.052Z,8.08
2022-11-28T21:21:53.985Z,7.78
2022-11-28T21:24:21.936Z,7.54
2022-11-28T21:26:53.873Z,7.33
2022-11-28T21:29:24.410Z,7.17
2022-11-28T21:31:52.492Z,7.02
2022-11-28T21:34:20.521Z,6.88
2022-11-28T21:36:48.227Z,6.75
2022-11-28T21:39:19.757Z,6.62
2022-11-28T21:41:47.831Z,6.53
2022-11-28T21:44:15.875Z,6.76
2022-11-28T21:46:43.615Z,8.39
2022-11-28T21:49:12.739Z,10.04
2022-11-28T21:51:40.869Z,10.25
2022-11-28T21:54:10.655Z,9.45
2022-11-28T21:56:38.592Z,8.72
2022-11-28T21:59:06.654Z,8.13
2022-11-28T22:01:34.816Z,7.66
2022-11-28T22:04:04.314Z,7.28
2022-11-28T22:06:32.840Z,6.97
2022-11-28T22:09:08.650Z,6.77
2022-11-28T22:11:39.802Z,6.57
2022-11-28T22:14:08.814Z,6.65
2022-11-28T22:16:36.620Z,8.04
2022-11-28T22:19:04.951Z,9.63
2022-11-28T22:21:51.912Z,10.17
2022-11-28T22:24:21.993Z,9.28
2022-11-28T22:26:49.974Z,8.51
2022-11-28T22:29:19.112Z,7.96
2022-11-28T22:31:47.067Z,7.55
2022-11-28T22:34:15.312Z,7.27
2022-11-28T22:36:43.212Z,7.02
2022-11-28T22:39:11.538Z,6.80
2022-11-28T22:41:39.358Z,6.59
2022-11-28T22:44:09.983Z,7.05
2022-11-28T22:46:38.082Z,8.68
2022-11-28T22:49:06.929Z,9.75
2022-11-28T22:51:35.667Z,9.27
2022-11-28T22:54:04.771Z,8.50
2022-11-28T22:56:33.815Z,7.88
2022-11-28T22:59:04.984Z,7.45
2022-11-28T23:01:34.719Z,7.15
2022-11-28T23:04:02.881Z,6.89
2022-11-28T23:06:33.483Z,6.64
2022-11-28T23:09:06.726Z,6.43
2022-11-28T23:11:36.732Z,6.61
2022-11-28T23:14:05.560Z,8.18
2022-11-28T23:16:38.591Z,9.65
2022-11-28T23:19:11.581Z,10.29
2022-11-28T23:21:41.473Z,9.57
2022-11-28T23:24:21.103Z,8.73
2022-11-28T23:26:50.803Z,8.06
2022-11-28T23:29:19.636Z,7.61
2022-11-28T23:31:47.884Z,7.27
2022-11-28T23:34:16.530Z,6.99
2022-11-28T23:36:46.409Z,6.75
2022-11-28T23:39:16.610Z,6.57
2022-11-28T23:41:44.912Z,6.45
2022-11-28T23:44:14.251Z,6.29
2022-11-28T23:46:43.584Z,6.43
2022-11-28T23:49:12.274Z,7.88
2022-11-28T23:51:40.982Z,9.50
2022-11-28T23:54:10.426Z,10.26
2022-11-28T23:56:39.450Z,9.60
2022-11-28T23:59:09.324Z,8.78
